Latest Weather Observations for Mulurulu

IDN60801

Issued at 12:22 pm EST Sunday 23 September 2018 (issued every 10 minutes, with the page automatically refreshed every 10 minutes)

About weather observations | Map of weather stations | Latest weather observations for NSW | Other Formats
Station Details ID: 047113 Name: MULURULU AWS Lat: -33.34 Lon: 143.40 Height: 78.0 m
Data from the previous 72 hours. | See also: Recent months at Mulurulu
Date/Time
EST
Temp
°C
App
Temp
°C
Dew
Point
°C
Rel
Hum
%
Delta-T
°C
Wind Press
QNH
hPa
Press
MSL
hPa
Rain since
9am
mm
Dir  Spd
km/h
Gust
km/h
Spd
kts
Gust
kts
23/12:00pm 21.6 - 5.9 36 7.9 - - - - - - - 0.0
23/11:30am 20.6 - 5.8 38 7.4 - - - - - - - 0.0
23/11:00am 20.9 - 6.1 38 7.4 - - - - - - - 0.0
23/10:30am 21.3 - 6.0 37 7.7 - - - - - - - 0.0
23/10:00am 19.1 - 6.2 43 6.4 - - - - - - - 0.0
23/09:30am 18.7 - 6.5 45 6.1 - - - - - - - 0.0
23/09:00am 17.2 - 6.7 50 5.2 - - - - - - - 0.0
23/08:30am 15.6 - 6.6 55 4.4 - - - - - - - 0.0
23/08:00am 14.5 - 6.3 58 4.0 - - - - - - - 0.0
23/07:30am 13.0 - 5.9 62 3.4 - - - - - - - 0.0
23/07:00am 11.7 - 5.3 65 3.0 - - - - - - - 0.0
23/06:30am 10.6 - 4.5 66 2.7 - - - - - - - 0.0
23/06:00am 10.9 - 4.4 64 2.9 - - - - - - - 0.0
23/05:30am 11.9 - 4.6 61 3.3 - - - - - - - 0.0
23/05:00am 12.6 - 4.8 59 3.6 - - - - - - - 0.0
23/04:30am 13.3 - 5.0 57 3.9 - - - - - - - 0.0
23/04:00am 13.9 - 5.0 55 4.2 - - - - - - - 0.0
23/03:30am 14.5 - 4.8 52 4.5 - - - - - - - 0.0
23/03:00am 15.1 - 4.8 50 4.8 - - - - - - - 0.0
23/02:30am 15.4 - 3.9 46 5.3 - - - - - - - 0.0
23/02:00am 16.2 - 3.9 44 5.7 - - - - - - - 0.0
23/01:30am 17.4 - 4.4 42 6.2 - - - - - - - 0.0
23/01:00am 18.2 - 5.1 42 6.3 - - - - - - - 0.0
23/12:30am 18.3 - 4.5 40 6.6 - - - - - - - 0.0
23/12:00am 18.4 - 2.7 35 7.3 - - - - - - - 0.0
 
Date/Time
EST
Temp
°C
App
Temp
°C
Dew
Point
°C
Rel
Hum
%
Delta-T
°C
Wind Press
QNH
hPa
Press
MSL
hPa
Rain since
9am
mm
Dir  Spd
km/h
Gust
km/h
Spd
kts
Gust
kts
22/11:30pm 18.2 - 1.3 32 7.6 - - - - - - - 0.0
22/11:27pm 17.9 - 1.0 32 7.5 - - - - - - - 0.0
22/11:00pm 12.9 - -3.0 33 6.2 - - - - - - - 0.0
22/10:30pm 13.4 - -2.5 33 6.3 - - - - - - - 0.0
22/10:00pm 14.3 - -2.6 31 6.7 - - - - - - - 0.0
22/09:30pm 15.1 - -1.5 32 6.8 - - - - - - - 0.0
22/09:00pm 15.7 - -1.8 30 7.2 - - - - - - - 0.0
22/08:30pm 16.4 - -1.7 29 7.5 - - - - - - - 0.0
22/08:00pm 17.5 - -0.7 29 7.8 - - - - - - - 0.0
22/07:30pm 18.9 - -0.5 27 8.4 - - - - - - - 0.0
22/07:00pm 21.3 - -0.1 24 9.6 - - - - - - - 0.0
22/06:30pm 24.2 - 0.5 21 11.0 - - - - - - - 0.0
22/06:00pm 25.6 - 0.3 19 11.8 - - - - - - - 0.0
22/05:30pm 26.3 - 0.9 19 12.0 - - - - - - - 0.0
22/05:00pm 26.3 - 1.6 20 11.9 - - - - - - - 0.0
22/04:30pm 26.6 - 1.8 20 12.0 - - - - - - - 0.0
22/04:00pm 26.0 - 2.0 21 11.6 - - - - - - - 0.0
22/03:30pm 26.8 - 2.7 21 11.8 - - - - - - - 0.0
22/03:00pm 26.6 - 3.2 22 11.6 - - - - - - - 0.0
22/02:30pm 25.8 - 3.1 23 11.2 - - - - - - - 0.0
22/02:00pm 26.4 - 3.0 22 11.5 - - - - - - - 0.0
22/01:30pm 25.0 - 3.0 24 10.7 - - - - - - - 0.0
22/01:00pm 25.4 - 2.8 23 11.0 - - - - - - - 0.0
22/12:30pm 25.1 - 3.7 25 10.6 - - - - - - - 0.0
22/12:00pm 23.9 - 3.8 27 9.9 - - - - - - - 0.0
22/11:30am 23.4 - 3.4 27 9.7 - - - - - - - 0.0
22/11:00am 23.3 - 3.8 28 9.5 - - - - - - - 0.0
22/10:30am 22.2 - 4.3 31 8.8 - - - - - - - 0.0
22/10:00am 21.6 - 3.8 31 8.6 - - - - - - - 0.0
22/09:30am 20.2 - 3.4 33 8.0 - - - - - - - 0.0
22/09:00am 18.7 - 2.9 35 7.3 - - - - - - - 0.0
22/08:30am 17.2 - 3.1 39 6.5 - - - - - - - 0.0
22/08:00am 13.4 - 2.6 48 4.8 - - - - - - - 0.0
22/07:30am 12.4 - 1.7 48 4.6 - - - - - - - 0.0
22/07:00am 12.2 - 1.5 48 4.6 - - - - - - - 0.0
22/06:30am 12.4 - 2.8 52 4.2 - - - - - - - 0.0
22/06:00am 13.4 - 2.9 49 4.7 - - - - - - - 0.0
22/05:30am 12.8 - 3.5 53 4.2 - - - - - - - 0.0
22/05:00am 12.5 - 3.2 53 4.1 - - - - - - - 0.0
22/04:30am 10.3 - 2.2 57 3.4 - - - - - - - 0.0
22/04:00am 10.1 - 0.4 51 4.0 - - - - - - - 0.0
22/03:30am 10.9 - 1.7 53 3.9 - - - - - - - 0.0
22/03:00am 12.6 - 2.5 50 4.4 - - - - - - - 0.0
22/02:30am 12.2 - 1.2 47 4.7 - - - - - - - 0.0
22/02:00am 13.8 - 3.3 49 4.7 - - - - - - - 0.0
22/01:30am 13.7 - 3.5 50 4.6 - - - - - - - 0.0
22/01:00am 12.9 - 1.9 47 4.8 - - - - - - - 0.0
22/12:30am 13.8 - 2.7 47 4.9 - - - - - - - 0.0
22/12:00am 14.6 - 3.1 46 5.2 - - - - - - - 0.0
 
Date/Time
EST
Temp
°C
App
Temp
°C
Dew
Point
°C
Rel
Hum
%
Delta-T
°C
Wind Press
QNH
hPa
Press
MSL
hPa
Rain since
9am
mm
Dir  Spd
km/h
Gust
km/h
Spd
kts
Gust
kts
21/11:30pm 14.9 - 3.1 45 5.3 - - - - - - - 0.0
21/11:00pm 15.1 - 3.3 45 5.4 - - - - - - - 0.0
21/10:30pm 14.4 - 2.9 46 5.2 - - - - - - - 0.0
21/10:00pm 13.9 - 2.2 45 5.1 - - - - - - - 0.0
21/09:30pm 14.7 - 2.9 45 5.3 - - - - - - - 0.0
21/09:00pm 14.6 - 2.2 43 5.5 - - - - - - - 0.0
21/08:30pm 14.9 - 1.8 41 5.8 - - - - - - - 0.0
21/08:00pm 15.8 - 1.9 39 6.2 - - - - - - - 0.0
21/07:30pm 17.0 - 2.2 37 6.7 - - - - - - - 0.0
21/07:00pm 18.7 - 2.5 34 7.5 - - - - - - - 0.0
21/06:30pm 20.8 - 3.5 32 8.3 - - - - - - - 0.0
21/06:00pm 22.0 - 3.6 30 8.9 - - - - - - - 0.0
21/05:30pm 22.6 - 4.2 30 9.0 - - - - - - - 0.0
21/05:00pm 22.7 - 4.2 30 9.1 - - - - - - - 0.0
21/04:30pm 23.4 - 3.9 28 9.6 - - - - - - - 0.0
21/04:00pm 23.5 - 4.0 28 9.6 - - - - - - - 0.0
21/03:30pm 23.0 - 4.5 30 9.2 - - - - - - - 0.0
21/03:00pm 22.6 - 4.2 30 9.0 - - - - - - - 0.0
21/02:30pm 22.4 - 4.0 30 9.0 - - - - - - - 0.0
21/02:00pm 22.2 - 4.3 31 8.8 - - - - - - - 0.0
21/01:30pm 21.9 - 4.0 31 8.7 - - - - - - - 0.0
21/01:00pm 21.5 - 4.1 32 8.5 - - - - - - - 0.0
21/12:30pm 20.7 - 3.4 32 8.2 - - - - - - - 0.0
21/12:00pm 20.3 - 3.5 33 8.0 - - - - - - - 0.0
21/11:30am 19.6 - 3.3 34 7.7 - - - - - - - 0.0
21/11:00am 18.9 - 3.1 35 7.4 - - - - - - - 0.0
21/10:30am 17.9 - 3.8 39 6.6 - - - - - - - 0.0
21/10:00am 17.1 - 3.8 41 6.2 - - - - - - - 0.0
21/09:30am 15.8 - 3.9 45 5.5 - - - - - - - 0.0
21/09:00am 14.2 - 4.5 52 4.5 - - - - - - - 0.0
21/08:30am 13.4 - 4.6 55 4.1 - - - - - - - 0.0
21/08:00am 11.3 - 4.3 62 3.2 - - - - - - - 0.0
21/07:30am 8.7 - 2.7 66 2.5 - - - - - - - 0.0
21/07:00am 7.0 - 1.5 68 2.2 - - - - - - - 0.0
21/06:30am 6.1 - 0.6 68 2.2 - - - - - - - 0.0
21/06:00am 6.5 - 0.4 65 2.4 - - - - - - - 0.0
21/05:30am 6.0 - -2.6 54 3.1 - - - - - - - 0.0
21/05:00am 7.5 - 0.0 59 2.9 - - - - - - - 0.0
21/04:30am 6.5 - -2.1 54 3.2 - - - - - - - 0.0
21/04:00am 6.0 - -3.4 51 3.3 - - - - - - - 0.0
21/03:30am 6.1 - -3.8 49 3.5 - - - - - - - 0.0
21/03:00am 5.0 - -6.8 42 3.8 - - - - - - - 0.0
21/02:30am 4.8 - -5.5 47 3.4 - - - - - - - 0.0
21/02:00am 5.2 - -5.7 45 3.6 - - - - - - - 0.0
21/01:30am 5.5 - -6.7 41 4.0 - - - - - - - 0.0
21/01:00am 5.8 - -6.1 42 3.9 - - - - - - - 0.0
21/12:30am 6.4 - -5.2 43 4.0 - - - - - - - 0.0
21/12:00am 6.8 - -6.8 37 4.5 - - - - - - - 0.0
 
Date/Time
EST
Temp
°C
App
Temp
°C
Dew
Point
°C
Rel
Hum
%
Delta-T
°C
Wind Press
QNH
hPa
Press
MSL
hPa
Rain since
9am
mm
Dir  Spd
km/h
Gust
km/h
Spd
kts
Gust
kts
20/11:30pm 7.4 - -5.6 39 4.4 - - - - - - - 0.0
20/11:00pm 7.9 - -5.2 39 4.6 - - - - - - - 0.0
20/10:30pm 8.9 - -4.6 38 4.8 - - - - - - - 0.0
20/10:00pm 10.5 - -4.3 35 5.4 - - - - - - - 0.0
20/09:30pm 9.4 - -5.3 35 5.2 - - - - - - - 0.0
20/09:00pm 9.9 - -5.6 33 5.5 - - - - - - - 0.0
20/08:30pm 10.4 - -5.2 33 5.6 - - - - - - - 0.0
20/08:00pm 11.5 - -4.2 33 5.8 - - - - - - - 0.0
20/07:30pm 12.6 - -4.5 30 6.4 - - - - - - - 0.0
20/07:00pm 14.9 - -3.4 28 7.2 - - - - - - - 0.0
20/06:30pm 17.0 - -3.1 25 8.1 - - - - - - - 0.0
20/06:00pm 18.2 - -3.2 23 8.7 - - - - - - - 0.0
20/05:30pm 18.8 - -2.7 23 8.9 - - - - - - - 0.0
20/05:00pm 18.9 - -2.7 23 9.0 - - - - - - - 0.0
20/04:30pm 19.1 - -2.5 23 9.0 - - - - - - - 0.0
20/04:00pm 19.4 - -2.2 23 9.1 - - - - - - - 0.0
20/03:30pm 19.1 - -1.4 25 8.8 - - - - - - - 0.0
20/03:00pm 18.6 - -1.8 25 8.6 - - - - - - - 0.0
20/02:30pm 18.5 - -1.9 25 8.6 - - - - - - - 0.0
20/02:00pm 18.0 - -1.3 27 8.2 - - - - - - - 0.0
20/01:30pm 17.7 - -1.0 28 8.0 - - - - - - - 0.0
20/01:00pm 16.7 - -1.4 29 7.6 - - - - - - - 0.0
20/12:30pm 16.3 - -0.4 32 7.1 - - - - - - - 0.0

Other Formats:

Comma delimited format used in spreadsheet applications
http://www.bom.gov.au/fwo/IDN60801/IDN60801.94797.axf

JavaScript Object Notation format (JSON) in row-major order
http://www.bom.gov.au/fwo/IDN60801/IDN60801.94797.json